»·PEaware :: N13W U08-1G4

N13W :: U08-1G4

FLIGHT INFORMATION

Flight Status: Arrived
Operator: Privately registered:
United States
More flights under this callsign
Pilot: Will N. (25416)
Aircraft: CESSNA 172 SKYHAWK
(C172)
More flights by this aircraft type
Origin: U08 Perkins
United States
Destination: 1G4 Grand Canyon West
United States
More flights between these airports :: More routes between these airports
Route:
File this flight plan on PilotEdge
Remarks:
Altitude:
(Current/Filed)
9,500ft
Speed:
(Current/Filed)
120kts
Departed: 29-Jul-19 01:04 AM
Arrived: 29-Jul-19 01:52 AM
Distance/Time
Traveled:
46nm/0:48
Distance/Time
To Go:
Arrived

Flight Plot

Page will automatically refresh every two minutes.


Map Options




Map Legend


Flown Route
Filed Route
Departure Airport
Arrival Airport
Navaid (VOR, NDB)
Fix

Horizontal Profiles

Position Reports

Time Latitude Longitude Heading Altitude Ground
Speed
29-Jul-19 00:56 36.562118 -114.440608 331 1337ft 0kts
29-Jul-19 00:57 36.562118 -114.440608 331 1337ft 0kts
29-Jul-19 00:58 36.562118 -114.440608 331 1337ft 0kts
29-Jul-19 00:59 36.562118 -114.440608 331 1337ft 0kts
29-Jul-19 01:00 36.562176 -114.440605 19 1338ft 0kts
29-Jul-19 01:01 36.562118 -114.439960 72 1344ft 0kts
29-Jul-19 01:02 36.562295 -114.439550 56 1346ft 6kts
29-Jul-19 01:03 36.563751 -114.440262 331 1349ft 46kts
29-Jul-19 01:04 36.585354 -114.455678 339 2009ft 97kts
29-Jul-19 01:05 36.584938 -114.434650 141 2628ft 106kts
29-Jul-19 01:06 36.561864 -114.411362 142 3328ft 107kts
29-Jul-19 01:07 36.539291 -114.387166 132 3978ft 108kts
29-Jul-19 01:08 36.517068 -114.362067 144 4581ft 108kts
29-Jul-19 01:09 36.489987 -114.345784 163 5152ft 109kts
29-Jul-19 01:10 36.460617 -114.336636 164 5702ft 109kts
29-Jul-19 01:11 36.430865 -114.329457 173 6204ft 109kts
29-Jul-19 01:12 36.400585 -114.326874 180 6691ft 110kts
29-Jul-19 01:13 36.369897 -114.327217 179 7137ft 110kts
29-Jul-19 01:14 36.339439 -114.326157 176 7597ft 108kts
29-Jul-19 01:15 36.309297 -114.322983 172 8018ft 109kts
29-Jul-19 01:16 36.279090 -114.327549 193 8405ft 110kts
29-Jul-19 01:17 36.249762 -114.338447 203 8778ft 110kts
29-Jul-19 01:18 36.222852 -114.355422 208 9177ft 108kts
29-Jul-19 01:19 36.195891 -114.373748 207 9475ft 112kts
29-Jul-19 01:20 36.166877 -114.392150 205 9560ft 119kts
29-Jul-19 01:21 36.134982 -114.400438 168 9628ft 120kts
29-Jul-19 01:22 36.105180 -114.381958 143 9685ft 121kts
29-Jul-19 01:23 36.081397 -114.350649 120 9568ft 126kts
29-Jul-19 01:24 36.077220 -114.308107 91 9505ft 125kts
29-Jul-19 01:25 36.075796 -114.264895 92 9366ft 125kts
29-Jul-19 01:26 36.073322 -114.222194 90 9208ft 124kts
29-Jul-19 01:27 36.076818 -114.180097 84 9115ft 122kts
29-Jul-19 01:28 36.081975 -114.138634 79 9002ft 122kts
29-Jul-19 01:29 36.088794 -114.097595 78 8932ft 120kts
29-Jul-19 01:30 36.095798 -114.057260 77 8890ft 118kts
29-Jul-19 01:31 36.102652 -114.016683 80 8503ft 121kts
29-Jul-19 01:32 36.103317 -113.974880 94 7990ft 121kts
29-Jul-19 01:33 36.095094 -113.935310 110 7390ft 118kts
29-Jul-19 01:34 36.082118 -113.898604 114 6836ft 115kts
29-Jul-19 01:35 36.069881 -113.863097 116 6283ft 105kts
29-Jul-19 01:36 36.056658 -113.832494 117 5849ft 96kts
29-Jul-19 01:37 36.038961 -113.814098 154 5680ft 65kts
29-Jul-19 01:38 36.021629 -113.811856 188 5450ft 64kts
29-Jul-19 01:39 36.004028 -113.814350 182 5131ft 63kts
29-Jul-19 01:40 35.985917 -113.816805 184 4840ft 87kts
29-Jul-19 01:41 35.965302 -113.808182 98 5551ft 94kts
29-Jul-19 01:42 35.965855 -113.774026 52 5949ft 109kts
29-Jul-19 01:43 35.993997 -113.762373 15 5927ft 109kts
29-Jul-19 01:44 36.022497 -113.753405 13 5618ft 98kts
29-Jul-19 01:45 36.049183 -113.749984 329 5350ft 98kts
29-Jul-19 01:46 36.051080 -113.776958 253 5321ft 60kts
29-Jul-19 01:47 36.042542 -113.795248 232 5224ft 61kts
29-Jul-19 01:48 36.030524 -113.810052 213 5173ft 61kts
29-Jul-19 01:49 36.014142 -113.813534 183 5171ft 60kts
29-Jul-19 01:50 35.997300 -113.815529 185 5037ft 60kts
29-Jul-19 01:51 35.984917 -113.817297 257 4820ft 7kts
29-Jul-19 01:52 35.984816 -113.818387 189 4820ft 8kts
29-Jul-19 01:53 35.984050 -113.819490 291 4820ft 2kts
29-Jul-19 01:54 35.984231 -113.819572 4 4820ft 0kts
29-Jul-19 01:55 35.984248 -113.819571 4 4820ft 0kts
29-Jul-19 01:56 35.984248 -113.819571 4 4820ft 0kts
29-Jul-19 01:57 35.984248 -113.819571 4 4820ft 0kts
29-Jul-19 01:58 35.984248 -113.819571 4 4820ft 0kts
29-Jul-19 01:59 35.984248 -113.819571 4 4820ft 0kts
29-Jul-19 02:00 35.984248 -113.819571 4 4820ft 0kts
29-Jul-19 02:01 35.984248 -113.819571 4 4820ft 0kts
29-Jul-19 02:02 35.984248 -113.819571 4 4820ft 0kts
29-Jul-19 02:03 35.984248 -113.819571 4 4820ft 0kts
29-Jul-19 02:04 35.984248 -113.819571 4 4820ft 0kts
29-Jul-19 02:05 35.984248 -113.819571 4 4820ft 0kts

Navigation Log

Ident Type
Flight plan parsing failed, navigation log unavailable